sensor_id;sensor_type;location;lat;lon;timestamp;P1;durP1;ratioP1;P2;durP2;ratioP2
8464;SDS011;4269;52.458;13.430;2022-07-06T00:01:49;3.90;;;1.40;;
8464;SDS011;4269;52.458;13.430;2022-07-06T00:04:16;2.87;;;1.30;;
8464;SDS011;4269;52.458;13.430;2022-07-06T00:06:42;3.33;;;1.47;;
8464;SDS011;4269;52.458;13.430;2022-07-06T00:09:08;2.03;;;1.60;;
8464;SDS011;4269;52.458;13.430;2022-07-06T00:11:34;3.50;;;1.40;;
8464;SDS011;4269;52.458;13.430;2022-07-06T00:14:00;3.93;;;1.53;;
8464;SDS011;4269;52.458;13.430;2022-07-06T00:16:26;4.33;;;1.63;;
8464;SDS011;4269;52.458;13.430;2022-07-06T00:18:53;3.87;;;2.20;;
8464;SDS011;4269;52.458;13.430;2022-07-06T00:21:19;3.10;;;1.80;;
8464;SDS011;4269;52.458;13.430;2022-07-06T00:23:45;3.03;;;1.70;;
8464;SDS011;4269;52.458;13.430;2022-07-06T00:26:11;4.50;;;1.47;;
8464;SDS011;4269;52.458;13.430;2022-07-06T00:28:37;4.17;;;1.50;;
8464;SDS011;4269;52.458;13.430;2022-07-06T00:31:03;2.37;;;1.40;;
8464;SDS011;4269;52.458;13.430;2022-07-06T00:33:30;3.90;;;1.57;;
8464;SDS011;4269;52.458;13.430;2022-07-06T00:35:57;2.10;;;1.77;;
8464;SDS011;4269;52.458;13.430;2022-07-06T00:38:22;4.27;;;1.47;;
8464;SDS011;4269;52.458;13.430;2022-07-06T00:40:48;2.10;;;1.60;;
8464;SDS011;4269;52.458;13.430;2022-07-06T00:43:14;3.47;;;1.57;;
8464;SDS011;4269;52.458;13.430;2022-07-06T00:45:40;5.87;;;1.50;;
8464;SDS011;4269;52.458;13.430;2022-07-06T00:48:06;4.13;;;1.20;;
8464;SDS011;4269;52.458;13.430;2022-07-06T00:50:32;2.37;;;1.10;;
8464;SDS011;4269;52.458;13.430;2022-07-06T00:52:59;3.87;;;1.70;;
8464;SDS011;4269;52.458;13.430;2022-07-06T00:55:28;2.60;;;1.37;;
8464;SDS011;4269;52.458;13.430;2022-07-06T00:57:55;2.77;;;1.50;;
8464;SDS011;4269;52.458;13.430;2022-07-06T01:00:22;4.07;;;1.37;;
8464;SDS011;4269;52.458;13.430;2022-07-06T01:02:49;3.50;;;1.33;;
8464;SDS011;4269;52.458;13.430;2022-07-06T01:05:15;7.13;;;1.50;;
8464;SDS011;4269;52.458;13.430;2022-07-06T01:07:42;2.13;;;1.40;;
8464;SDS011;4269;52.458;13.430;2022-07-06T01:13:31;3.43;;;1.30;;
8464;SDS011;4269;52.458;13.430;2022-07-06T01:15:58;4.93;;;1.50;;
8464;SDS011;4269;52.458;13.430;2022-07-06T01:18:24;3.43;;;1.70;;
8464;SDS011;4269;52.458;13.430;2022-07-06T01:20:50;2.07;;;1.43;;
8464;SDS011;4269;52.458;13.430;2022-07-06T01:23:16;3.23;;;1.60;;
8464;SDS011;4269;52.458;13.430;2022-07-06T01:25:42;5.57;;;1.50;;
8464;SDS011;4269;52.458;13.430;2022-07-06T01:28:08;2.73;;;1.43;;
8464;SDS011;4269;52.458;13.430;2022-07-06T01:30:34;2.30;;;1.40;;
8464;SDS011;4269;52.458;13.430;2022-07-06T01:33:00;2.40;;;1.50;;
8464;SDS011;4269;52.458;13.430;2022-07-06T01:35:26;2.33;;;1.30;;
8464;SDS011;4269;52.458;13.430;2022-07-06T01:37:56;3.30;;;1.40;;
8464;SDS011;4269;52.458;13.430;2022-07-06T01:40:22;3.90;;;1.50;;
8464;SDS011;4269;52.458;13.430;2022-07-06T01:42:48;5.43;;;1.43;;
8464;SDS011;4269;52.458;13.430;2022-07-06T01:45:14;3.20;;;1.37;;
8464;SDS011;4269;52.458;13.430;2022-07-06T01:47:40;5.27;;;1.83;;
8464;SDS011;4269;52.458;13.430;2022-07-06T01:50:06;3.23;;;1.10;;
8464;SDS011;4269;52.458;13.430;2022-07-06T01:52:33;2.10;;;1.30;;
8464;SDS011;4269;52.458;13.430;2022-07-06T01:54:59;4.63;;;1.30;;
8464;SDS011;4269;52.458;13.430;2022-07-06T01:57:25;3.77;;;1.43;;
8464;SDS011;4269;52.458;13.430;2022-07-06T01:59:51;2.07;;;1.33;;
8464;SDS011;4269;52.458;13.430;2022-07-06T02:02:17;2.93;;;1.70;;
8464;SDS011;4269;52.458;13.430;2022-07-06T02:04:45;3.53;;;1.60;;
8464;SDS011;4269;52.458;13.430;2022-07-06T02:07:10;3.87;;;1.20;;
8464;SDS011;4269;52.458;13.430;2022-07-06T02:09:36;2.33;;;1.10;;
8464;SDS011;4269;52.458;13.430;2022-07-06T02:12:03;1.53;;;1.10;;
8464;SDS011;4269;52.458;13.430;2022-07-06T02:14:29;4.87;;;1.40;;
8464;SDS011;4269;52.458;13.430;2022-07-06T02:16:54;2.27;;;1.43;;
8464;SDS011;4269;52.458;13.430;2022-07-06T02:19:20;3.10;;;1.47;;
8464;SDS011;4269;52.458;13.430;2022-07-06T02:21:46;4.10;;;1.50;;
8464;SDS011;4269;52.458;13.430;2022-07-06T02:24:12;3.43;;;1.97;;
8464;SDS011;4269;52.458;13.430;2022-07-06T02:26:38;2.70;;;1.90;;
8464;SDS011;4269;52.458;13.430;2022-07-06T02:29:03;2.83;;;1.60;;
8464;SDS011;4269;52.458;13.430;2022-07-06T02:31:29;9.90;;;1.73;;
8464;SDS011;4269;52.458;13.430;2022-07-06T02:33:55;3.77;;;1.63;;
8464;SDS011;4269;52.458;13.430;2022-07-06T02:36:21;4.83;;;1.40;;
8464;SDS011;4269;52.458;13.430;2022-07-06T02:38:47;4.57;;;1.60;;
8464;SDS011;4269;52.458;13.430;2022-07-06T02:41:13;2.23;;;1.10;;
8464;SDS011;4269;52.458;13.430;2022-07-06T02:43:39;5.97;;;1.70;;
8464;SDS011;4269;52.458;13.430;2022-07-06T02:46:05;4.67;;;1.40;;
8464;SDS011;4269;52.458;13.430;2022-07-06T02:48:31;3.10;;;1.20;;
8464;SDS011;4269;52.458;13.430;2022-07-06T02:50:57;2.97;;;1.30;;
8464;SDS011;4269;52.458;13.430;2022-07-06T02:53:23;2.70;;;1.43;;
8464;SDS011;4269;52.458;13.430;2022-07-06T02:55:49;3.80;;;1.47;;
8464;SDS011;4269;52.458;13.430;2022-07-06T02:58:15;2.17;;;1.30;;
8464;SDS011;4269;52.458;13.430;2022-07-06T03:00:41;3.40;;;1.37;;
8464;SDS011;4269;52.458;13.430;2022-07-06T03:03:07;4.20;;;1.20;;
8464;SDS011;4269;52.458;13.430;2022-07-06T03:05:34;2.93;;;1.50;;
8464;SDS011;4269;52.458;13.430;2022-07-06T03:08:00;3.50;;;1.30;;
8464;SDS011;4269;52.458;13.430;2022-07-06T03:10:26;4.00;;;1.57;;
8464;SDS011;4269;52.458;13.430;2022-07-06T03:12:51;4.33;;;1.43;;
8464;SDS011;4269;52.458;13.430;2022-07-06T03:15:17;2.87;;;1.30;;
8464;SDS011;4269;52.458;13.430;2022-07-06T03:17:43;3.00;;;1.80;;
8464;SDS011;4269;52.458;13.430;2022-07-06T03:20:09;2.97;;;1.60;;
8464;SDS011;4269;52.458;13.430;2022-07-06T03:22:35;10.10;;;1.73;;
8464;SDS011;4269;52.458;13.430;2022-07-06T03:25:01;4.07;;;1.50;;
8464;SDS011;4269;52.458;13.430;2022-07-06T03:27:26;4.13;;;1.50;;
8464;SDS011;4269;52.458;13.430;2022-07-06T03:29:52;6.97;;;1.70;;
8464;SDS011;4269;52.458;13.430;2022-07-06T03:32:20;3.17;;;1.47;;
8464;SDS011;4269;52.458;13.430;2022-07-06T03:34:45;3.37;;;1.40;;
8464;SDS011;4269;52.458;13.430;2022-07-06T03:37:11;5.10;;;1.80;;
8464;SDS011;4269;52.458;13.430;2022-07-06T03:39:37;1.80;;;1.23;;
8464;SDS011;4269;52.458;13.430;2022-07-06T03:42:03;4.23;;;1.50;;
8464;SDS011;4269;52.458;13.430;2022-07-06T03:44:28;6.67;;;1.90;;
8464;SDS011;4269;52.458;13.430;2022-07-06T03:46:54;2.80;;;1.80;;
8464;SDS011;4269;52.458;13.430;2022-07-06T03:49:21;4.43;;;1.50;;
8464;SDS011;4269;52.458;13.430;2022-07-06T03:51:46;2.07;;;1.30;;
8464;SDS011;4269;52.458;13.430;2022-07-06T03:54:12;1.73;;;1.50;;
8464;SDS011;4269;52.458;13.430;2022-07-06T03:56:38;4.37;;;1.43;;
8464;SDS011;4269;52.458;13.430;2022-07-06T03:59:04;5.20;;;1.47;;
8464;SDS011;4269;52.458;13.430;2022-07-06T04:01:30;7.07;;;1.80;;
8464;SDS011;4269;52.458;13.430;2022-07-06T04:03:56;3.27;;;1.60;;
8464;SDS011;4269;52.458;13.430;2022-07-06T04:06:22;3.97;;;1.50;;
8464;SDS011;4269;52.458;13.430;2022-07-06T04:08:48;6.00;;;1.80;;
8464;SDS011;4269;52.458;13.430;2022-07-06T04:11:14;2.97;;;1.57;;
8464;SDS011;4269;52.458;13.430;2022-07-06T04:13:40;3.20;;;1.43;;
8464;SDS011;4269;52.458;13.430;2022-07-06T04:16:07;3.67;;;1.80;;
8464;SDS011;4269;52.458;13.430;2022-07-06T04:18:33;3.80;;;1.70;;
8464;SDS011;4269;52.458;13.430;2022-07-06T04:20:59;3.47;;;1.40;;
8464;SDS011;4269;52.458;13.430;2022-07-06T04:23:24;3.77;;;1.90;;
8464;SDS011;4269;52.458;13.430;2022-07-06T04:25:51;3.83;;;1.33;;
8464;SDS011;4269;52.458;13.430;2022-07-06T04:28:17;3.73;;;1.50;;
8464;SDS011;4269;52.458;13.430;2022-07-06T04:30:43;2.23;;;1.53;;
8464;SDS011;4269;52.458;13.430;2022-07-06T04:33:09;3.40;;;1.67;;
8464;SDS011;4269;52.458;13.430;2022-07-06T04:35:35;3.53;;;1.70;;
8464;SDS011;4269;52.458;13.430;2022-07-06T04:38:01;3.03;;;1.47;;
8464;SDS011;4269;52.458;13.430;2022-07-06T04:40:27;3.40;;;1.90;;
8464;SDS011;4269;52.458;13.430;2022-07-06T04:42:52;2.47;;;1.50;;
8464;SDS011;4269;52.458;13.430;2022-07-06T04:45:18;4.30;;;1.80;;
8464;SDS011;4269;52.458;13.430;2022-07-06T04:47:44;4.40;;;1.77;;
8464;SDS011;4269;52.458;13.430;2022-07-06T04:50:10;6.57;;;1.53;;
8464;SDS011;4269;52.458;13.430;2022-07-06T04:52:37;8.03;;;1.87;;
8464;SDS011;4269;52.458;13.430;2022-07-06T04:55:02;3.40;;;1.37;;
8464;SDS011;4269;52.458;13.430;2022-07-06T04:57:30;4.37;;;1.70;;
8464;SDS011;4269;52.458;13.430;2022-07-06T04:59:56;2.43;;;1.67;;
8464;SDS011;4269;52.458;13.430;2022-07-06T05:02:22;3.80;;;1.50;;
8464;SDS011;4269;52.458;13.430;2022-07-06T05:04:48;2.70;;;1.60;;
8464;SDS011;4269;52.458;13.430;2022-07-06T05:07:14;9.83;;;1.97;;
8464;SDS011;4269;52.458;13.430;2022-07-06T05:09:40;2.90;;;1.80;;
8464;SDS011;4269;52.458;13.430;2022-07-06T05:12:06;3.40;;;1.30;;
8464;SDS011;4269;52.458;13.430;2022-07-06T05:14:32;6.93;;;2.20;;
8464;SDS011;4269;52.458;13.430;2022-07-06T05:16:59;3.67;;;1.80;;
8464;SDS011;4269;52.458;13.430;2022-07-06T05:19:25;6.17;;;1.40;;
8464;SDS011;4269;52.458;13.430;2022-07-06T05:21:51;3.70;;;1.60;;
8464;SDS011;4269;52.458;13.430;2022-07-06T05:24:17;6.50;;;1.70;;
8464;SDS011;4269;52.458;13.430;2022-07-06T05:26:46;5.73;;;2.13;;
8464;SDS011;4269;52.458;13.430;2022-07-06T05:29:12;3.70;;;1.83;;
8464;SDS011;4269;52.458;13.430;2022-07-06T05:31:38;3.27;;;1.47;;
8464;SDS011;4269;52.458;13.430;2022-07-06T05:34:04;9.03;;;2.40;;
8464;SDS011;4269;52.458;13.430;2022-07-06T05:36:30;5.97;;;1.60;;
8464;SDS011;4269;52.458;13.430;2022-07-06T05:38:56;5.30;;;1.87;;
8464;SDS011;4269;52.458;13.430;2022-07-06T05:41:22;4.67;;;1.73;;
8464;SDS011;4269;52.458;13.430;2022-07-06T05:43:47;2.53;;;1.50;;
8464;SDS011;4269;52.458;13.430;2022-07-06T05:46:13;3.43;;;1.70;;
8464;SDS011;4269;52.458;13.430;2022-07-06T05:48:39;3.87;;;1.60;;
8464;SDS011;4269;52.458;13.430;2022-07-06T05:51:23;7.33;;;1.50;;
8464;SDS011;4269;52.458;13.430;2022-07-06T05:53:49;6.43;;;1.60;;
8464;SDS011;4269;52.458;13.430;2022-07-06T05:56:15;8.33;;;1.80;;
8464;SDS011;4269;52.458;13.430;2022-07-06T05:58:41;5.47;;;1.50;;
8464;SDS011;4269;52.458;13.430;2022-07-06T06:01:07;4.77;;;1.70;;
8464;SDS011;4269;52.458;13.430;2022-07-06T06:03:33;7.47;;;1.80;;
8464;SDS011;4269;52.458;13.430;2022-07-06T06:05:59;3.00;;;1.33;;
8464;SDS011;4269;52.458;13.430;2022-07-06T06:08:25;6.03;;;1.90;;
8464;SDS011;4269;52.458;13.430;2022-07-06T06:10:52;2.43;;;1.40;;
8464;SDS011;4269;52.458;13.430;2022-07-06T06:13:18;3.33;;;1.70;;
8464;SDS011;4269;52.458;13.430;2022-07-06T06:15:44;4.10;;;1.80;;
8464;SDS011;4269;52.458;13.430;2022-07-06T06:18:09;4.20;;;1.67;;
8464;SDS011;4269;52.458;13.430;2022-07-06T06:20:35;6.10;;;1.57;;
8464;SDS011;4269;52.458;13.430;2022-07-06T06:23:01;3.13;;;1.70;;
8464;SDS011;4269;52.458;13.430;2022-07-06T06:25:38;7.53;;;1.90;;
8464;SDS011;4269;52.458;13.430;2022-07-06T06:28:05;2.90;;;1.57;;
8464;SDS011;4269;52.458;13.430;2022-07-06T06:30:33;3.97;;;1.50;;
8464;SDS011;4269;52.458;13.430;2022-07-06T06:35:37;5.40;;;1.97;;
8464;SDS011;4269;52.458;13.430;2022-07-06T06:38:14;6.43;;;1.87;;
8464;SDS011;4269;52.458;13.430;2022-07-06T06:40:40;4.47;;;1.93;;
8464;SDS011;4269;52.458;13.430;2022-07-06T06:43:06;6.30;;;1.43;;
8464;SDS011;4269;52.458;13.430;2022-07-06T06:45:32;4.97;;;1.90;;
8464;SDS011;4269;52.458;13.430;2022-07-06T06:47:58;6.30;;;1.50;;
8464;SDS011;4269;52.458;13.430;2022-07-06T06:50:24;7.80;;;2.13;;
8464;SDS011;4269;52.458;13.430;2022-07-06T06:52:50;4.37;;;1.90;;
8464;SDS011;4269;52.458;13.430;2022-07-06T06:55:16;7.43;;;1.43;;
8464;SDS011;4269;52.458;13.430;2022-07-06T06:57:42;8.30;;;1.60;;
8464;SDS011;4269;52.458;13.430;2022-07-06T07:00:08;4.67;;;2.13;;
8464;SDS011;4269;52.458;13.430;2022-07-06T07:02:34;5.83;;;1.97;;
8464;SDS011;4269;52.458;13.430;2022-07-06T07:05:00;5.03;;;1.30;;
8464;SDS011;4269;52.458;13.430;2022-07-06T07:07:26;3.83;;;1.60;;
8464;SDS011;4269;52.458;13.430;2022-07-06T07:09:52;2.23;;;1.30;;
8464;SDS011;4269;52.458;13.430;2022-07-06T07:12:18;5.67;;;1.67;;
8464;SDS011;4269;52.458;13.430;2022-07-06T07:14:44;7.37;;;2.57;;
8464;SDS011;4269;52.458;13.430;2022-07-06T07:17:10;4.60;;;1.67;;
8464;SDS011;4269;52.458;13.430;2022-07-06T07:19:36;6.40;;;1.73;;
8464;SDS011;4269;52.458;13.430;2022-07-06T07:22:02;7.00;;;1.83;;
8464;SDS011;4269;52.458;13.430;2022-07-06T07:24:28;4.10;;;1.40;;
8464;SDS011;4269;52.458;13.430;2022-07-06T07:26:54;7.70;;;1.90;;
8464;SDS011;4269;52.458;13.430;2022-07-06T07:29:20;7.10;;;1.43;;
8464;SDS011;4269;52.458;13.430;2022-07-06T07:31:46;5.73;;;2.70;;
8464;SDS011;4269;52.458;13.430;2022-07-06T07:34:12;3.00;;;1.40;;
8464;SDS011;4269;52.458;13.430;2022-07-06T07:36:37;2.40;;;1.40;;
8464;SDS011;4269;52.458;13.430;2022-07-06T07:39:03;4.57;;;1.60;;
8464;SDS011;4269;52.458;13.430;2022-07-06T07:41:29;5.63;;;1.43;;
8464;SDS011;4269;52.458;13.430;2022-07-06T08:03:48;4.00;;;1.40;;
8464;SDS011;4269;52.458;13.430;2022-07-06T08:06:14;3.97;;;1.50;;
8464;SDS011;4269;52.458;13.430;2022-07-06T08:08:40;2.17;;;1.33;;
8464;SDS011;4269;52.458;13.430;2022-07-06T08:11:06;3.30;;;1.73;;
8464;SDS011;4269;52.458;13.430;2022-07-06T08:13:32;3.23;;;1.20;;
8464;SDS011;4269;52.458;13.430;2022-07-06T08:15:58;2.73;;;1.30;;
8464;SDS011;4269;52.458;13.430;2022-07-06T08:18:25;4.30;;;1.90;;
8464;SDS011;4269;52.458;13.430;2022-07-06T08:20:50;2.00;;;1.13;;
8464;SDS011;4269;52.458;13.430;2022-07-06T08:23:16;2.40;;;1.43;;
8464;SDS011;4269;52.458;13.430;2022-07-06T08:25:42;2.90;;;1.27;;
8464;SDS011;4269;52.458;13.430;2022-07-06T08:28:08;6.63;;;1.43;;
8464;SDS011;4269;52.458;13.430;2022-07-06T08:30:34;11.70;;;1.70;;
8464;SDS011;4269;52.458;13.430;2022-07-06T08:33:00;3.13;;;1.20;;
8464;SDS011;4269;52.458;13.430;2022-07-06T08:35:26;7.03;;;1.83;;
8464;SDS011;4269;52.458;13.430;2022-07-06T08:37:52;5.37;;;1.57;;
8464;SDS011;4269;52.458;13.430;2022-07-06T08:40:17;3.23;;;1.53;;
8464;SDS011;4269;52.458;13.430;2022-07-06T08:42:43;5.17;;;1.50;;
8464;SDS011;4269;52.458;13.430;2022-07-06T08:45:10;1.90;;;1.30;;
8464;SDS011;4269;52.458;13.430;2022-07-06T08:47:36;5.50;;;2.00;;
8464;SDS011;4269;52.458;13.430;2022-07-06T08:50:03;4.83;;;1.57;;
8464;SDS011;4269;52.458;13.430;2022-07-06T08:52:29;5.93;;;1.67;;
8464;SDS011;4269;52.458;13.430;2022-07-06T08:54:57;7.53;;;1.17;;
8464;SDS011;4269;52.458;13.430;2022-07-06T08:57:24;3.97;;;1.10;;
8464;SDS011;4269;52.458;13.430;2022-07-06T08:59:52;4.73;;;1.20;;
8464;SDS011;4269;52.458;13.430;2022-07-06T09:02:17;4.50;;;1.10;;
8464;SDS011;4269;52.458;13.430;2022-07-06T09:04:44;1.30;;;0.97;;
8464;SDS011;4269;52.458;13.430;2022-07-06T09:07:11;4.20;;;1.17;;
8464;SDS011;4269;52.458;13.430;2022-07-06T09:09:38;4.00;;;1.48;;
8464;SDS011;4269;52.458;13.430;2022-07-06T09:12:08;3.93;;;1.23;;
8464;SDS011;4269;52.458;13.430;2022-07-06T09:14:37;3.53;;;1.30;;
8464;SDS011;4269;52.458;13.430;2022-07-06T09:17:04;2.30;;;1.10;;
8464;SDS011;4269;52.458;13.430;2022-07-06T09:19:32;2.10;;;1.00;;
8464;SDS011;4269;52.458;13.430;2022-07-06T09:22:02;4.27;;;1.40;;
8464;SDS011;4269;52.458;13.430;2022-07-06T09:24:29;3.23;;;1.33;;
8464;SDS011;4269;52.458;13.430;2022-07-06T09:26:57;4.97;;;1.23;;
8464;SDS011;4269;52.458;13.430;2022-07-06T09:29:27;5.63;;;1.63;;
8464;SDS011;4269;52.458;13.430;2022-07-06T09:31:59;5.60;;;1.27;;
8464;SDS011;4269;52.458;13.430;2022-07-06T09:34:42;3.43;;;1.10;;
8464;SDS011;4269;52.458;13.430;2022-07-06T09:37:12;2.63;;;1.20;;
8464;SDS011;4269;52.458;13.430;2022-07-06T09:39:38;2.87;;;1.30;;
8464;SDS011;4269;52.458;13.430;2022-07-06T09:42:05;1.87;;;1.07;;
8464;SDS011;4269;52.458;13.430;2022-07-06T09:44:42;1.90;;;1.07;;
8464;SDS011;4269;52.458;13.430;2022-07-06T09:47:09;2.73;;;1.20;;
8464;SDS011;4269;52.458;13.430;2022-07-06T09:49:36;2.93;;;1.30;;
8464;SDS011;4269;52.458;13.430;2022-07-06T09:52:04;5.67;;;1.43;;
8464;SDS011;4269;52.458;13.430;2022-07-06T09:54:32;3.03;;;0.90;;
8464;SDS011;4269;52.458;13.430;2022-07-06T09:56:59;8.43;;;2.37;;
8464;SDS011;4269;52.458;13.430;2022-07-06T09:59:26;3.70;;;0.80;;
8464;SDS011;4269;52.458;13.430;2022-07-06T10:01:54;3.77;;;0.90;;
8464;SDS011;4269;52.458;13.430;2022-07-06T10:04:25;2.30;;;1.20;;
8464;SDS011;4269;52.458;13.430;2022-07-06T10:06:55;5.53;;;1.10;;
8464;SDS011;4269;52.458;13.430;2022-07-06T10:09:23;2.87;;;1.10;;
8464;SDS011;4269;52.458;13.430;2022-07-06T10:14:17;1.60;;;0.70;;
8464;SDS011;4269;52.458;13.430;2022-07-06T10:16:48;6.63;;;1.30;;
8464;SDS011;4269;52.458;13.430;2022-07-06T10:19:15;2.10;;;1.00;;
8464;SDS011;4269;52.458;13.430;2022-07-06T10:21:41;2.07;;;0.90;;
8464;SDS011;4269;52.458;13.430;2022-07-06T10:24:08;0.77;;;0.77;;
8464;SDS011;4269;52.458;13.430;2022-07-06T10:26:36;3.80;;;1.20;;
8464;SDS011;4269;52.458;13.430;2022-07-06T10:29:03;1.57;;;0.90;;
8464;SDS011;4269;52.458;13.430;2022-07-06T10:31:29;3.97;;;1.13;;
8464;SDS011;4269;52.458;13.430;2022-07-06T10:34:03;5.87;;;1.30;;
8464;SDS011;4269;52.458;13.430;2022-07-06T10:36:31;2.83;;;1.40;;
8464;SDS011;4269;52.458;13.430;2022-07-06T10:38:57;1.40;;;0.80;;
8464;SDS011;4269;52.458;13.430;2022-07-06T10:41:32;1.77;;;1.10;;
8464;SDS011;4269;52.458;13.430;2022-07-06T10:44:15;3.20;;;1.10;;
8464;SDS011;4269;52.458;13.430;2022-07-06T10:46:41;4.20;;;1.50;;
8464;SDS011;4269;52.458;13.430;2022-07-06T10:49:18;4.20;;;1.50;;
8464;SDS011;4269;52.458;13.430;2022-07-06T10:51:44;3.43;;;1.03;;
8464;SDS011;4269;52.458;13.430;2022-07-06T10:54:10;2.10;;;1.20;;
8464;SDS011;4269;52.458;13.430;2022-07-06T10:56:38;2.23;;;1.00;;
8464;SDS011;4269;52.458;13.430;2022-07-06T10:59:18;3.37;;;1.67;;
8464;SDS011;4269;52.458;13.430;2022-07-06T11:04:35;2.67;;;1.20;;
8464;SDS011;4269;52.458;13.430;2022-07-06T11:07:19;1.70;;;1.17;;
8464;SDS011;4269;52.458;13.430;2022-07-06T11:09:55;3.80;;;1.00;;
8464;SDS011;4269;52.458;13.430;2022-07-06T11:12:22;0.60;;;0.57;;
8464;SDS011;4269;52.458;13.430;2022-07-06T11:14:48;3.40;;;1.00;;
8464;SDS011;4269;52.458;13.430;2022-07-06T11:17:15;2.20;;;0.80;;
8464;SDS011;4269;52.458;13.430;2022-07-06T11:19:54;1.20;;;0.73;;
8464;SDS011;4269;52.458;13.430;2022-07-06T11:22:21;3.70;;;0.83;;
8464;SDS011;4269;52.458;13.430;2022-07-06T11:24:49;1.00;;;1.00;;
8464;SDS011;4269;52.458;13.430;2022-07-06T11:27:16;2.77;;;0.90;;
8464;SDS011;4269;52.458;13.430;2022-07-06T11:29:42;4.60;;;1.30;;
8464;SDS011;4269;52.458;13.430;2022-07-06T11:32:10;5.57;;;1.27;;
8464;SDS011;4269;52.458;13.430;2022-07-06T11:34:41;4.17;;;1.20;;
8464;SDS011;4269;52.458;13.430;2022-07-06T11:37:13;4.50;;;1.10;;
8464;SDS011;4269;52.458;13.430;2022-07-06T11:39:40;2.77;;;1.17;;
8464;SDS011;4269;52.458;13.430;2022-07-06T11:42:08;5.97;;;1.30;;
8464;SDS011;4269;52.458;13.430;2022-07-06T11:44:35;3.37;;;1.27;;
8464;SDS011;4269;52.458;13.430;2022-07-06T11:47:02;4.20;;;1.20;;
8464;SDS011;4269;52.458;13.430;2022-07-06T11:49:29;1.27;;;1.00;;
8464;SDS011;4269;52.458;13.430;2022-07-06T11:51:56;2.50;;;1.33;;
8464;SDS011;4269;52.458;13.430;2022-07-06T11:54:22;7.57;;;1.67;;
8464;SDS011;4269;52.458;13.430;2022-07-06T11:56:55;10.40;;;1.20;;
8464;SDS011;4269;52.458;13.430;2022-07-06T11:59:31;1.30;;;1.20;;
8464;SDS011;4269;52.458;13.430;2022-07-06T12:02:02;1.67;;;1.00;;
8464;SDS011;4269;52.458;13.430;2022-07-06T12:04:33;2.87;;;1.20;;
8464;SDS011;4269;52.458;13.430;2022-07-06T12:07:00;2.93;;;1.07;;
8464;SDS011;4269;52.458;13.430;2022-07-06T12:09:32;7.33;;;1.20;;
8464;SDS011;4269;52.458;13.430;2022-07-06T12:11:58;5.20;;;1.00;;
8464;SDS011;4269;52.458;13.430;2022-07-06T12:14:27;4.37;;;1.40;;
8464;SDS011;4269;52.458;13.430;2022-07-06T12:16:54;3.00;;;1.07;;
8464;SDS011;4269;52.458;13.430;2022-07-06T12:19:23;8.80;;;1.10;;
8464;SDS011;4269;52.458;13.430;2022-07-06T12:21:49;4.13;;;0.80;;
8464;SDS011;4269;52.458;13.430;2022-07-06T12:24:26;5.47;;;1.07;;
8464;SDS011;4269;52.458;13.430;2022-07-06T12:26:55;1.10;;;0.63;;
8464;SDS011;4269;52.458;13.430;2022-07-06T12:29:21;1.63;;;1.00;;
8464;SDS011;4269;52.458;13.430;2022-07-06T12:31:51;3.97;;;1.10;;
8464;SDS011;4269;52.458;13.430;2022-07-06T12:39:16;3.03;;;1.07;;
8464;SDS011;4269;52.458;13.430;2022-07-06T12:41:47;2.53;;;0.90;;
8464;SDS011;4269;52.458;13.430;2022-07-06T12:44:16;4.87;;;1.30;;
8464;SDS011;4269;52.458;13.430;2022-07-06T12:46:44;2.63;;;1.20;;
8464;SDS011;4269;52.458;13.430;2022-07-06T12:49:31;4.23;;;1.30;;
8464;SDS011;4269;52.458;13.430;2022-07-06T12:54:35;2.63;;;0.90;;
8464;SDS011;4269;52.458;13.430;2022-07-06T12:57:15;3.40;;;1.70;;
8464;SDS011;4269;52.458;13.430;2022-07-06T12:59:48;4.03;;;1.57;;
8464;SDS011;4269;52.458;13.430;2022-07-06T13:02:25;6.77;;;1.70;;
8464;SDS011;4269;52.458;13.430;2022-07-06T13:05:08;5.17;;;1.73;;
8464;SDS011;4269;52.458;13.430;2022-07-06T13:07:36;1.83;;;1.13;;
8464;SDS011;4269;52.458;13.430;2022-07-06T13:12:30;7.97;;;1.40;;
8464;SDS011;4269;52.458;13.430;2022-07-06T13:14:56;1.97;;;1.30;;
8464;SDS011;4269;52.458;13.430;2022-07-06T13:17:22;1.43;;;1.30;;
8464;SDS011;4269;52.458;13.430;2022-07-06T13:19:48;5.00;;;1.60;;
8464;SDS011;4269;52.458;13.430;2022-07-06T13:22:14;5.93;;;2.27;;
8464;SDS011;4269;52.458;13.430;2022-07-06T13:24:40;4.23;;;2.63;;
8464;SDS011;4269;52.458;13.430;2022-07-06T13:27:06;5.57;;;3.10;;
8464;SDS011;4269;52.458;13.430;2022-07-06T13:29:32;4.93;;;2.90;;
8464;SDS011;4269;52.458;13.430;2022-07-06T13:31:58;6.40;;;2.73;;
8464;SDS011;4269;52.458;13.430;2022-07-06T13:34:24;6.10;;;3.93;;
8464;SDS011;4269;52.458;13.430;2022-07-06T13:36:51;5.50;;;3.53;;
8464;SDS011;4269;52.458;13.430;2022-07-06T13:39:17;5.90;;;2.70;;
8464;SDS011;4269;52.458;13.430;2022-07-06T13:41:43;4.63;;;3.03;;
8464;SDS011;4269;52.458;13.430;2022-07-06T13:44:09;6.07;;;3.10;;
8464;SDS011;4269;52.458;13.430;2022-07-06T13:46:37;1.53;;;1.17;;
8464;SDS011;4269;52.458;13.430;2022-07-06T13:49:04;4.10;;;1.30;;
8464;SDS011;4269;52.458;13.430;2022-07-06T13:51:30;1.47;;;1.37;;
8464;SDS011;4269;52.458;13.430;2022-07-06T13:53:57;3.40;;;1.40;;
8464;SDS011;4269;52.458;13.430;2022-07-06T13:56:23;3.60;;;2.63;;
8464;SDS011;4269;52.458;13.430;2022-07-06T13:58:51;5.23;;;3.17;;
8464;SDS011;4269;52.458;13.430;2022-07-06T14:01:16;10.57;;;2.77;;
8464;SDS011;4269;52.458;13.430;2022-07-06T14:03:42;3.83;;;1.70;;
8464;SDS011;4269;52.458;13.430;2022-07-06T14:06:08;2.77;;;1.40;;
8464;SDS011;4269;52.458;13.430;2022-07-06T14:08:35;1.50;;;1.40;;
8464;SDS011;4269;52.458;13.430;2022-07-06T14:11:03;3.73;;;1.77;;
8464;SDS011;4269;52.458;13.430;2022-07-06T14:13:29;3.73;;;1.57;;
8464;SDS011;4269;52.458;13.430;2022-07-06T14:15:55;4.03;;;1.63;;
8464;SDS011;4269;52.458;13.430;2022-07-06T14:18:21;2.67;;;1.43;;
8464;SDS011;4269;52.458;13.430;2022-07-06T14:20:47;4.77;;;1.97;;
8464;SDS011;4269;52.458;13.430;2022-07-06T14:23:14;2.23;;;1.60;;
8464;SDS011;4269;52.458;13.430;2022-07-06T14:25:41;2.90;;;1.20;;
8464;SDS011;4269;52.458;13.430;2022-07-06T14:28:07;3.43;;;1.37;;
8464;SDS011;4269;52.458;13.430;2022-07-06T14:30:35;1.43;;;1.00;;
8464;SDS011;4269;52.458;13.430;2022-07-06T14:33:07;4.90;;;0.80;;
8464;SDS011;4269;52.458;13.430;2022-07-06T14:35:38;1.90;;;0.90;;
8464;SDS011;4269;52.458;13.430;2022-07-06T14:38:06;0.87;;;0.70;;
8464;SDS011;4269;52.458;13.430;2022-07-06T14:40:32;2.73;;;0.87;;
8464;SDS011;4269;52.458;13.430;2022-07-06T14:42:59;3.77;;;1.17;;
8464;SDS011;4269;52.458;13.430;2022-07-06T14:45:25;1.80;;;1.03;;
8464;SDS011;4269;52.458;13.430;2022-07-06T14:47:51;2.27;;;0.97;;
8464;SDS011;4269;52.458;13.430;2022-07-06T14:50:18;1.57;;;1.37;;
8464;SDS011;4269;52.458;13.430;2022-07-06T14:52:45;5.23;;;1.20;;
8464;SDS011;4269;52.458;13.430;2022-07-06T14:55:11;4.37;;;0.93;;
8464;SDS011;4269;52.458;13.430;2022-07-06T14:57:37;0.50;;;0.50;;
8464;SDS011;4269;52.458;13.430;2022-07-06T15:00:03;6.90;;;0.90;;
8464;SDS011;4269;52.458;13.430;2022-07-06T15:02:30;2.40;;;1.10;;
8464;SDS011;4269;52.458;13.430;2022-07-06T15:04:56;1.63;;;0.93;;
8464;SDS011;4269;52.458;13.430;2022-07-06T15:07:22;2.13;;;1.07;;
8464;SDS011;4269;52.458;13.430;2022-07-06T15:09:48;3.57;;;1.30;;
8464;SDS011;4269;52.458;13.430;2022-07-06T15:12:14;1.83;;;1.50;;
8464;SDS011;4269;52.458;13.430;2022-07-06T15:14:40;4.87;;;1.73;;
8464;SDS011;4269;52.458;13.430;2022-07-06T15:17:06;6.30;;;1.43;;
8464;SDS011;4269;52.458;13.430;2022-07-06T15:19:33;4.60;;;1.57;;
8464;SDS011;4269;52.458;13.430;2022-07-06T15:21:59;7.70;;;1.70;;
8464;SDS011;4269;52.458;13.430;2022-07-06T15:24:25;3.57;;;1.30;;
8464;SDS011;4269;52.458;13.430;2022-07-06T15:26:51;2.20;;;1.07;;
8464;SDS011;4269;52.458;13.430;2022-07-06T15:29:17;1.73;;;1.20;;
8464;SDS011;4269;52.458;13.430;2022-07-06T15:31:43;3.90;;;1.30;;
8464;SDS011;4269;52.458;13.430;2022-07-06T15:34:10;3.53;;;1.40;;
8464;SDS011;4269;52.458;13.430;2022-07-06T15:36:35;3.87;;;1.20;;
8464;SDS011;4269;52.458;13.430;2022-07-06T15:39:01;4.43;;;1.20;;
8464;SDS011;4269;52.458;13.430;2022-07-06T15:41:27;4.57;;;1.20;;